sensor_id;sensor_type;location;lat;lon;timestamp;pressure;altitude;pressure_sealevel;temperature;humidity
72038;BME280;59900;50.788;12.904;2024-03-23T00:53:10;96626.66;;;11.37;70.74
72038;BME280;59900;50.788;12.904;2024-03-23T00:55:36;96636.59;;;11.35;70.66
72038;BME280;59900;50.788;12.904;2024-03-23T00:58:01;96639.25;;;11.17;71.88
72038;BME280;59900;50.788;12.904;2024-03-23T01:00:26;96635.13;;;10.91;73.11
72038;BME280;59900;50.788;12.904;2024-03-23T01:02:51;96641.59;;;10.71;74.04
72038;BME280;59900;50.788;12.904;2024-03-23T01:05:17;96633.78;;;10.64;74.44
72038;BME280;59900;50.788;12.904;2024-03-23T01:07:42;96634.34;;;10.66;74.49
72038;BME280;59900;50.788;12.904;2024-03-23T01:10:07;96638.47;;;10.62;74.87
72038;BME280;59900;50.788;12.904;2024-03-23T01:12:33;96634.00;;;10.62;74.80
72038;BME280;59900;50.788;12.904;2024-03-23T01:14:58;96628.16;;;10.60;75.25
72038;BME280;59900;50.788;12.904;2024-03-23T01:17:23;96627.16;;;10.61;75.12
72038;BME280;59900;50.788;12.904;2024-03-23T01:19:48;96609.38;;;10.57;75.34
72038;BME280;59900;50.788;12.904;2024-03-23T01:22:14;96610.19;;;10.57;75.44
72038;BME280;59900;50.788;12.904;2024-03-23T01:24:39;96604.50;;;10.60;75.37
72038;BME280;59900;50.788;12.904;2024-03-23T01:27:05;96596.00;;;10.65;75.06
72038;BME280;59900;50.788;12.904;2024-03-23T01:29:30;96591.69;;;10.71;75.21
72038;BME280;59900;50.788;12.904;2024-03-23T01:31:55;96583.00;;;10.70;75.14
72038;BME280;59900;50.788;12.904;2024-03-23T01:34:21;96586.72;;;10.62;75.28
72038;BME280;59900;50.788;12.904;2024-03-23T01:36:46;96575.41;;;10.62;75.26
72038;BME280;59900;50.788;12.904;2024-03-23T01:39:12;96574.97;;;10.65;75.44
72038;BME280;59900;50.788;12.904;2024-03-23T01:41:39;96575.78;;;10.65;75.77
72038;BME280;59900;50.788;12.904;2024-03-23T01:44:07;96574.59;;;10.61;75.65
72038;BME280;59900;50.788;12.904;2024-03-23T01:46:33;96560.53;;;10.56;76.04
72038;BME280;59900;50.788;12.904;2024-03-23T01:48:59;96562.53;;;10.54;76.19
72038;BME280;59900;50.788;12.904;2024-03-23T01:51:24;96561.16;;;10.51;75.94
72038;BME280;59900;50.788;12.904;2024-03-23T01:53:50;96562.84;;;10.46;76.63
72038;BME280;59900;50.788;12.904;2024-03-23T01:56:15;96557.66;;;10.39;76.60
72038;BME280;59900;50.788;12.904;2024-03-23T01:58:41;96546.81;;;10.36;76.84
72038;BME280;59900;50.788;12.904;2024-03-23T02:01:06;96545.03;;;10.30;77.12
72038;BME280;59900;50.788;12.904;2024-03-23T02:03:31;96548.31;;;10.25;77.24
72038;BME280;59900;50.788;12.904;2024-03-23T02:05:57;96550.56;;;10.22;77.44
72038;BME280;59900;50.788;12.904;2024-03-23T02:08:23;96535.25;;;10.19;77.60
72038;BME280;59900;50.788;12.904;2024-03-23T02:10:49;96538.53;;;10.14;77.92
72038;BME280;59900;50.788;12.904;2024-03-23T02:13:14;96528.66;;;10.09;78.13
72038;BME280;59900;50.788;12.904;2024-03-23T02:15:40;96534.78;;;10.03;78.21
72038;BME280;59900;50.788;12.904;2024-03-23T02:18:07;96529.97;;;10.00;78.69
72038;BME280;59900;50.788;12.904;2024-03-23T02:20:32;96529.16;;;10.00;78.88
72038;BME280;59900;50.788;12.904;2024-03-23T02:22:57;96535.22;;;10.00;79.12
72038;BME280;59900;50.788;12.904;2024-03-23T02:25:23;96523.09;;;9.99;78.86
72038;BME280;59900;50.788;12.904;2024-03-23T02:27:48;96531.53;;;10.01;79.04
72038;BME280;59900;50.788;12.904;2024-03-23T02:30:13;96532.94;;;10.04;78.84
72038;BME280;59900;50.788;12.904;2024-03-23T02:32:38;96527.91;;;10.02;78.56
72038;BME280;59900;50.788;12.904;2024-03-23T02:35:04;96518.84;;;9.98;78.96
72038;BME280;59900;50.788;12.904;2024-03-23T02:37:30;96511.50;;;9.89;79.70
72038;BME280;59900;50.788;12.904;2024-03-23T02:39:55;96499.59;;;9.86;79.74
72038;BME280;59900;50.788;12.904;2024-03-23T02:42:20;96499.38;;;9.88;80.00
72038;BME280;59900;50.788;12.904;2024-03-23T02:44:46;96493.34;;;9.87;79.92
72038;BME280;59900;50.788;12.904;2024-03-23T02:47:11;96493.34;;;9.87;79.93
72038;BME280;59900;50.788;12.904;2024-03-23T02:49:36;96492.53;;;9.87;80.17
72038;BME280;59900;50.788;12.904;2024-03-23T02:52:02;96494.81;;;9.83;80.16
72038;BME280;59900;50.788;12.904;2024-03-23T02:54:27;96486.94;;;9.83;80.39
72038;BME280;59900;50.788;12.904;2024-03-23T02:56:52;96482.13;;;9.80;80.41
72038;BME280;59900;50.788;12.904;2024-03-23T02:59:18;96475.88;;;9.75;80.66
72038;BME280;59900;50.788;12.904;2024-03-23T03:01:43;96468.44;;;9.72;80.47
72038;BME280;59900;50.788;12.904;2024-03-23T03:04:08;96469.34;;;9.66;80.92
72038;BME280;59900;50.788;12.904;2024-03-23T03:06:33;96462.25;;;9.66;81.17
72038;BME280;59900;50.788;12.904;2024-03-23T03:08:59;96460.28;;;9.62;81.64
72038;BME280;59900;50.788;12.904;2024-03-23T03:11:24;96461.53;;;9.59;81.67
72038;BME280;59900;50.788;12.904;2024-03-23T03:13:49;96463.63;;;9.50;82.04
72038;BME280;59900;50.788;12.904;2024-03-23T03:16:14;96465.53;;;9.37;82.78
72038;BME280;59900;50.788;12.904;2024-03-23T03:18:40;96469.53;;;9.15;84.56
72038;BME280;59900;50.788;12.904;2024-03-23T03:21:05;96463.03;;;8.92;85.91
72038;BME280;59900;50.788;12.904;2024-03-23T03:23:35;96456.88;;;8.80;86.90
72038;BME280;59900;50.788;12.904;2024-03-23T03:26:01;96453.66;;;8.78;87.77
72038;BME280;59900;50.788;12.904;2024-03-23T03:28:26;96451.03;;;8.78;88.08
72038;BME280;59900;50.788;12.904;2024-03-23T03:30:55;96446.41;;;8.80;88.56
72038;BME280;59900;50.788;12.904;2024-03-23T03:33:20;96442.31;;;8.84;88.39
72038;BME280;59900;50.788;12.904;2024-03-23T03:35:46;96438.47;;;8.87;88.45
72038;BME280;59900;50.788;12.904;2024-03-23T03:38:11;96434.09;;;8.81;89.19
72038;BME280;59900;50.788;12.904;2024-03-23T03:40:36;96434.72;;;8.76;89.38
72038;BME280;59900;50.788;12.904;2024-03-23T03:43:01;96427.06;;;8.75;89.73
72038;BME280;59900;50.788;12.904;2024-03-23T03:45:27;96434.91;;;8.75;89.77
72038;BME280;59900;50.788;12.904;2024-03-23T03:47:52;96439.19;;;8.69;90.04
72038;BME280;59900;50.788;12.904;2024-03-23T03:50:17;96429.53;;;8.70;89.96
72038;BME280;59900;50.788;12.904;2024-03-23T03:52:42;96421.88;;;8.68;89.82
72038;BME280;59900;50.788;12.904;2024-03-23T03:55:12;96419.69;;;8.65;89.15
72038;BME280;59900;50.788;12.904;2024-03-23T03:57:38;96410.44;;;8.63;89.30
72038;BME280;59900;50.788;12.904;2024-03-23T04:00:04;96405.63;;;8.60;89.01
72038;BME280;59900;50.788;12.904;2024-03-23T04:02:29;96401.00;;;8.55;89.07
72038;BME280;59900;50.788;12.904;2024-03-23T04:04:54;96397.63;;;8.48;89.29
72038;BME280;59900;50.788;12.904;2024-03-23T04:07:20;96391.22;;;8.44;89.49
72038;BME280;59900;50.788;12.904;2024-03-23T04:09:47;96377.97;;;8.39;89.54
72038;BME280;59900;50.788;12.904;2024-03-23T04:12:13;96363.09;;;8.33;89.32
72038;BME280;59900;50.788;12.904;2024-03-23T04:14:38;96350.66;;;8.22;90.35
72038;BME280;59900;50.788;12.904;2024-03-23T04:17:03;96351.91;;;8.13;90.95
72038;BME280;59900;50.788;12.904;2024-03-23T04:19:28;96341.22;;;8.08;91.54
72038;BME280;59900;50.788;12.904;2024-03-23T04:21:54;96348.72;;;8.04;92.65
72038;BME280;59900;50.788;12.904;2024-03-23T04:24:19;96335.03;;;8.02;92.63
72038;BME280;59900;50.788;12.904;2024-03-23T04:26:46;96331.44;;;7.97;92.25
72038;BME280;59900;50.788;12.904;2024-03-23T04:29:11;96328.66;;;7.92;92.71
72038;BME280;59900;50.788;12.904;2024-03-23T04:31:37;96325.63;;;7.88;93.48
72038;BME280;59900;50.788;12.904;2024-03-23T04:34:02;96329.25;;;7.87;94.72
72038;BME280;59900;50.788;12.904;2024-03-23T04:36:28;96324.25;;;7.85;94.16
72038;BME280;59900;50.788;12.904;2024-03-23T04:38:53;96321.66;;;7.79;94.88
72038;BME280;59900;50.788;12.904;2024-03-23T04:41:19;96325.09;;;7.73;94.95
72038;BME280;59900;50.788;12.904;2024-03-23T04:43:44;96320.09;;;7.65;94.16
72038;BME280;59900;50.788;12.904;2024-03-23T04:46:09;96301.88;;;7.45;94.88
72038;BME280;59900;50.788;12.904;2024-03-23T04:48:35;96300.91;;;7.33;96.91
72038;BME280;59900;50.788;12.904;2024-03-23T04:51:01;96285.50;;;7.12;99.41
72038;BME280;59900;50.788;12.904;2024-03-23T04:53:26;96277.06;;;7.10;100.00
72038;BME280;59900;50.788;12.904;2024-03-23T04:55:55;96273.81;;;7.21;100.00
72038;BME280;59900;50.788;12.904;2024-03-23T04:58:22;96265.75;;;7.29;99.83
72038;BME280;59900;50.788;12.904;2024-03-23T05:00:48;96258.69;;;7.36;98.46
72038;BME280;59900;50.788;12.904;2024-03-23T05:03:13;96248.41;;;7.41;98.03
72038;BME280;59900;50.788;12.904;2024-03-23T05:05:38;96237.31;;;7.46;97.20
72038;BME280;59900;50.788;12.904;2024-03-23T05:08:04;96241.97;;;7.44;95.77
72038;BME280;59900;50.788;12.904;2024-03-23T05:10:30;96259.25;;;7.45;95.71
72038;BME280;59900;50.788;12.904;2024-03-23T05:12:56;96254.84;;;7.45;94.83
72038;BME280;59900;50.788;12.904;2024-03-23T05:15:21;96242.34;;;7.47;94.84
72038;BME280;59900;50.788;12.904;2024-03-23T05:17:47;96242.75;;;7.51;94.85
72038;BME280;59900;50.788;12.904;2024-03-23T05:20:12;96226.66;;;7.54;94.68
72038;BME280;59900;50.788;12.904;2024-03-23T05:22:39;96221.19;;;7.55;95.06
72038;BME280;59900;50.788;12.904;2024-03-23T05:25:04;96219.41;;;7.56;95.12
72038;BME280;59900;50.788;12.904;2024-03-23T05:27:32;96212.94;;;7.58;96.82
72038;BME280;59900;50.788;12.904;2024-03-23T05:29:58;96207.28;;;7.61;97.00
72038;BME280;59900;50.788;12.904;2024-03-23T05:32:23;96213.09;;;7.63;96.86
72038;BME280;59900;50.788;12.904;2024-03-23T05:34:49;96214.16;;;7.56;96.13
72038;BME280;59900;50.788;12.904;2024-03-23T05:37:15;96221.22;;;7.49;96.39
72038;BME280;59900;50.788;12.904;2024-03-23T05:39:40;96219.66;;;7.41;97.30
72038;BME280;59900;50.788;12.904;2024-03-23T05:42:06;96211.41;;;7.44;97.68
72038;BME280;59900;50.788;12.904;2024-03-23T05:44:31;96198.72;;;7.48;97.98
72038;BME280;59900;50.788;12.904;2024-03-23T05:46:56;96198.09;;;7.52;97.79
72038;BME280;59900;50.788;12.904;2024-03-23T05:49:21;96192.44;;;7.55;96.86
72038;BME280;59900;50.788;12.904;2024-03-23T05:51:47;96195.84;;;7.62;96.76
72038;BME280;59900;50.788;12.904;2024-03-23T05:54:12;96188.00;;;7.62;96.94
72038;BME280;59900;50.788;12.904;2024-03-23T05:56:37;96188.00;;;7.62;97.64
72038;BME280;59900;50.788;12.904;2024-03-23T05:59:02;96191.00;;;7.66;97.51
72038;BME280;59900;50.788;12.904;2024-03-23T06:01:28;96192.56;;;7.67;96.99
72038;BME280;59900;50.788;12.904;2024-03-23T06:03:54;96179.88;;;7.70;96.98
72038;BME280;59900;50.788;12.904;2024-03-23T06:06:19;96175.84;;;7.74;96.38
72038;BME280;59900;50.788;12.904;2024-03-23T06:08:44;96164.78;;;7.72;96.10
72038;BME280;59900;50.788;12.904;2024-03-23T06:11:10;96174.06;;;7.75;96.24
72038;BME280;59900;50.788;12.904;2024-03-23T06:13:35;96154.97;;;7.68;95.71
72038;BME280;59900;50.788;12.904;2024-03-23T06:16:01;96144.50;;;7.68;95.69
72038;BME280;59900;50.788;12.904;2024-03-23T06:18:26;96135.66;;;7.69;95.95
72038;BME280;59900;50.788;12.904;2024-03-23T06:20:52;96128.78;;;7.74;96.51
72038;BME280;59900;50.788;12.904;2024-03-23T06:23:18;96141.44;;;7.77;96.98
72038;BME280;59900;50.788;12.904;2024-03-23T06:25:45;96149.28;;;7.77;96.72
72038;BME280;59900;50.788;12.904;2024-03-23T06:28:10;96138.75;;;7.84;96.57
72038;BME280;59900;50.788;12.904;2024-03-23T06:30:36;96128.06;;;7.92;96.66
72038;BME280;59900;50.788;12.904;2024-03-23T06:33:01;96133.88;;;7.94;96.75
72038;BME280;59900;50.788;12.904;2024-03-23T06:35:26;96125.78;;;7.96;96.72
72038;BME280;59900;50.788;12.904;2024-03-23T06:37:52;96106.03;;;8.00;96.63
72038;BME280;59900;50.788;12.904;2024-03-23T06:40:17;96091.97;;;8.01;97.24
72038;BME280;59900;50.788;12.904;2024-03-23T06:42:42;96105.19;;;8.06;98.04
72038;BME280;59900;50.788;12.904;2024-03-23T06:45:08;96102.28;;;8.14;97.62
72038;BME280;59900;50.788;12.904;2024-03-23T06:47:33;96086.53;;;8.20;97.91
72038;BME280;59900;50.788;12.904;2024-03-23T06:50:00;96078.03;;;8.25;97.88
72038;BME280;59900;50.788;12.904;2024-03-23T06:52:27;96073.56;;;8.32;97.64
72038;BME280;59900;50.788;12.904;2024-03-23T06:54:52;96071.69;;;8.39;97.27
72038;BME280;59900;50.788;12.904;2024-03-23T06:57:18;96071.84;;;8.44;96.63
72038;BME280;59900;50.788;12.904;2024-03-23T06:59:43;96058.88;;;8.49;95.67
72038;BME280;59900;50.788;12.904;2024-03-23T07:02:08;96052.69;;;8.62;96.26
72038;BME280;59900;50.788;12.904;2024-03-23T07:04:34;96049.56;;;8.71;96.54
72038;BME280;59900;50.788;12.904;2024-03-23T07:06:59;96048.81;;;8.82;96.20
72038;BME280;59900;50.788;12.904;2024-03-23T07:09:25;96040.66;;;8.90;96.68
72038;BME280;59900;50.788;12.904;2024-03-23T07:11:54;96036.50;;;9.01;96.58
72038;BME280;59900;50.788;12.904;2024-03-23T07:14:19;96028.53;;;9.08;96.58
72038;BME280;59900;50.788;12.904;2024-03-23T07:16:44;96017.50;;;9.17;96.17
72038;BME280;59900;50.788;12.904;2024-03-23T07:19:10;96016.81;;;9.22;96.08
72038;BME280;59900;50.788;12.904;2024-03-23T07:21:35;96003.41;;;9.30;96.03
72038;BME280;59900;50.788;12.904;2024-03-23T07:24:00;96004.69;;;9.39;95.53
72038;BME280;59900;50.788;12.904;2024-03-23T07:26:25;95998.09;;;9.48;95.26
72038;BME280;59900;50.788;12.904;2024-03-23T07:28:51;96003.00;;;9.56;95.48
72038;BME280;59900;50.788;12.904;2024-03-23T07:31:17;96000.28;;;9.63;95.32
72038;BME280;59900;50.788;12.904;2024-03-23T07:33:48;95984.41;;;9.69;95.12
72038;BME280;59900;50.788;12.904;2024-03-23T07:36:13;95979.16;;;9.81;95.16
72038;BME280;59900;50.788;12.904;2024-03-23T07:38:42;95990.56;;;9.86;95.25
72038;BME280;59900;50.788;12.904;2024-03-23T07:41:11;95999.38;;;9.92;94.94
72038;BME280;59900;50.788;12.904;2024-03-23T07:43:37;95990.91;;;10.01;94.50
72038;BME280;59900;50.788;12.904;2024-03-23T07:46:03;95987.16;;;10.09;94.28
72038;BME280;59900;50.788;12.904;2024-03-23T07:48:29;95994.22;;;10.20;93.22
72038;BME280;59900;50.788;12.904;2024-03-23T07:51:13;95983.16;;;10.30;93.05
72038;BME280;59900;50.788;12.904;2024-03-23T07:53:38;95987.00;;;10.39;93.04
72038;BME280;59900;50.788;12.904;2024-03-23T07:56:07;95981.38;;;10.47;92.79
72038;BME280;59900;50.788;12.904;2024-03-23T07:58:32;95984.19;;;10.57;93.13
72038;BME280;59900;50.788;12.904;2024-03-23T08:01:06;95960.28;;;10.70;92.83
72038;BME280;59900;50.788;12.904;2024-03-23T08:03:38;95966.22;;;10.77;91.22
72038;BME280;59900;50.788;12.904;2024-03-23T08:06:12;95966.16;;;10.89;90.79
72038;BME280;59900;50.788;12.904;2024-03-23T08:08:37;95965.44;;;10.93;90.89
72038;BME280;59900;50.788;12.904;2024-03-23T08:11:03;95972.31;;;10.94;90.14
72038;BME280;59900;50.788;12.904;2024-03-23T08:13:29;95983.03;;;10.93;89.81
72038;BME280;59900;50.788;12.904;2024-03-23T08:15:58;95990.38;;;10.91;90.15
72038;BME280;59900;50.788;12.904;2024-03-23T08:18:24;95988.53;;;10.91;89.67
72038;BME280;59900;50.788;12.904;2024-03-23T08:23:21;95963.63;;;10.94;87.41
72038;BME280;59900;50.788;12.904;2024-03-23T08:25:47;95966.25;;;10.94;87.78
72038;BME280;59900;50.788;12.904;2024-03-23T08:28:12;95983.84;;;10.93;87.58
72038;BME280;59900;50.788;12.904;2024-03-23T08:30:37;95996.97;;;10.93;87.95
72038;BME280;59900;50.788;12.904;2024-03-23T08:33:03;95998.38;;;10.84;86.95
72038;BME280;59900;50.788;12.904;2024-03-23T08:35:28;96008.81;;;10.79;87.00
72038;BME280;59900;50.788;12.904;2024-03-23T08:37:54;96013.41;;;10.72;89.37
72038;BME280;59900;50.788;12.904;2024-03-23T08:40:19;96009.78;;;10.61;91.80
72038;BME280;59900;50.788;12.904;2024-03-23T08:42:45;96003.38;;;10.57;93.70
72038;BME280;59900;50.788;12.904;2024-03-23T08:45:10;95996.13;;;10.48;95.76
72038;BME280;59900;50.788;12.904;2024-03-23T08:47:35;95995.00;;;10.44;94.60
72038;BME280;59900;50.788;12.904;2024-03-23T08:50:01;95983.94;;;10.42;94.41
72038;BME280;59900;50.788;12.904;2024-03-23T08:52:26;95997.97;;;10.36;94.00
72038;BME280;59900;50.788;12.904;2024-03-23T08:54:53;95997.28;;;10.29;95.32
72038;BME280;59900;50.788;12.904;2024-03-23T08:57:19;95996.94;;;10.25;95.51
72038;BME280;59900;50.788;12.904;2024-03-23T08:59:44;96006.34;;;10.21;96.85
72038;BME280;59900;50.788;12.904;2024-03-23T09:02:09;96035.97;;;10.10;100.00
72038;BME280;59900;50.788;12.904;2024-03-23T09:04:34;96096.25;;;9.52;100.00
72038;BME280;59900;50.788;12.904;2024-03-23T09:07:00;96119.31;;;9.02;100.00
72038;BME280;59900;50.788;12.904;2024-03-23T09:09:25;96210.97;;;8.16;100.00
72038;BME280;59900;50.788;12.904;2024-03-23T09:11:51;96177.81;;;7.48;100.00
72038;BME280;59900;50.788;12.904;2024-03-23T09:14:16;96236.50;;;6.94;100.00
72038;BME280;59900;50.788;12.904;2024-03-23T09:16:41;96189.63;;;6.35;100.00
72038;BME280;59900;50.788;12.904;2024-03-23T09:19:06;96224.72;;;5.87;100.00
72038;BME280;59900;50.788;12.904;2024-03-23T09:21:32;96253.97;;;5.35;100.00
72038;BME280;59900;50.788;12.904;2024-03-23T09:23:57;96237.44;;;5.01;100.00
72038;BME280;59900;50.788;12.904;2024-03-23T09:26:23;96279.56;;;4.84;100.00
72038;BME280;59900;50.788;12.904;2024-03-23T09:28:51;96270.47;;;4.67;100.00
72038;BME280;59900;50.788;12.904;2024-03-23T09:31:17;96272.56;;;4.57;100.00
72038;BME280;59900;50.788;12.904;2024-03-23T09:33:42;96304.41;;;4.37;100.00
72038;BME280;59900;50.788;12.904;2024-03-23T09:36:09;96357.88;;;4.19;100.00
72038;BME280;59900;50.788;12.904;2024-03-23T09:38:34;96336.09;;;4.20;100.00
72038;BME280;59900;50.788;12.904;2024-03-23T09:41:00;96360.88;;;4.01;100.00
72038;BME280;59900;50.788;12.904;2024-03-23T09:43:25;96357.50;;;3.86;100.00
72038;BME280;59900;50.788;12.904;2024-03-23T09:45:51;96366.56;;;3.90;100.00
72038;BME280;59900;50.788;12.904;2024-03-23T09:48:17;96391.03;;;3.95;100.00
72038;BME280;59900;50.788;12.904;2024-03-23T09:50:44;96374.38;;;3.90;100.00
72038;BME280;59900;50.788;12.904;2024-03-23T09:53:13;96390.56;;;3.92;100.00
72038;BME280;59900;50.788;12.904;2024-03-23T09:55:40;96405.69;;;4.03;100.00
72038;BME280;59900;50.788;12.904;2024-03-23T09:58:06;96426.13;;;3.91;100.00
72038;BME280;59900;50.788;12.904;2024-03-23T10:00:32;96427.22;;;3.97;100.00
72038;BME280;59900;50.788;12.904;2024-03-23T10:02:58;96445.97;;;3.92;100.00
72038;BME280;59900;50.788;12.904;2024-03-23T10:05:27;96452.22;;;3.98;100.00
72038;BME280;59900;50.788;12.904;2024-03-23T10:07:53;96475.97;;;3.95;100.00
72038;BME280;59900;50.788;12.904;2024-03-23T10:10:18;96458.84;;;3.86;100.00
72038;BME280;59900;50.788;12.904;2024-03-23T10:12:48;96453.66;;;3.86;100.00
72038;BME280;59900;50.788;12.904;2024-03-23T10:15:22;96471.69;;;3.87;100.00
72038;BME280;59900;50.788;12.904;2024-03-23T10:17:48;96480.63;;;3.85;100.00
72038;BME280;59900;50.788;12.904;2024-03-23T10:20:19;96497.03;;;3.85;100.00
72038;BME280;59900;50.788;12.904;2024-03-23T10:22:45;96496.78;;;3.80;100.00
72038;BME280;59900;50.788;12.904;2024-03-23T10:25:11;96503.66;;;3.73;100.00
72038;BME280;59900;50.788;12.904;2024-03-23T10:27:37;96508.13;;;3.79;100.00
72038;BME280;59900;50.788;12.904;2024-03-23T10:30:10;96514.75;;;3.82;100.00
72038;BME280;59900;50.788;12.904;2024-03-23T10:32:36;96507.97;;;3.81;100.00
72038;BME280;59900;50.788;12.904;2024-03-23T10:35:18;96523.94;;;3.92;100.00
72038;BME280;59900;50.788;12.904;2024-03-23T10:37:44;96532.59;;;4.00;100.00
72038;BME280;59900;50.788;12.904;2024-03-23T10:40:12;96544.25;;;3.89;100.00
72038;BME280;59900;50.788;12.904;2024-03-23T10:42:38;96558.16;;;3.96;100.00
72038;BME280;59900;50.788;12.904;2024-03-23T10:45:07;96548.13;;;3.78;100.00
72038;BME280;59900;50.788;12.904;2024-03-23T10:47:35;96536.25;;;3.76;100.00
72038;BME280;59900;50.788;12.904;2024-03-23T10:50:01;96551.78;;;3.69;100.00
72038;BME280;59900;50.788;12.904;2024-03-23T10:52:28;96540.94;;;3.66;100.00
72038;BME280;59900;50.788;12.904;2024-03-23T10:54:54;96545.16;;;3.67;100.00
72038;BME280;59900;50.788;12.904;2024-03-23T10:57:25;96550.16;;;3.68;100.00
72038;BME280;59900;50.788;12.904;2024-03-23T10:59:52;96556.63;;;3.72;100.00
72038;BME280;59900;50.788;12.904;2024-03-23T11:02:21;96563.50;;;3.80;100.00
72038;BME280;59900;50.788;12.904;2024-03-23T11:04:46;96558.59;;;3.85;100.00
72038;BME280;59900;50.788;12.904;2024-03-23T11:09:52;96558.59;;;4.00;100.00
72038;BME280;59900;50.788;12.904;2024-03-23T11:14:51;96583.63;;;4.01;100.00
72038;BME280;59900;50.788;12.904;2024-03-23T11:17:23;96562.66;;;4.02;100.00
72038;BME280;59900;50.788;12.904;2024-03-23T11:25:02;96580.66;;;4.18;100.00
72038;BME280;59900;50.788;12.904;2024-03-23T11:27:27;96593.31;;;4.21;100.00
72038;BME280;59900;50.788;12.904;2024-03-23T11:29:52;96576.72;;;4.22;100.00
72038;BME280;59900;50.788;12.904;2024-03-23T11:32:18;96591.16;;;4.25;100.00
72038;BME280;59900;50.788;12.904;2024-03-23T11:34:43;96583.25;;;4.33;100.00
72038;BME280;59900;50.788;12.904;2024-03-23T11:37:08;96600.75;;;4.39;100.00
72038;BME280;59900;50.788;12.904;2024-03-23T11:39:33;96570.34;;;4.39;100.00
72038;BME280;59900;50.788;12.904;2024-03-23T11:41:59;96566.38;;;4.43;100.00
72038;BME280;59900;50.788;12.904;2024-03-23T11:44:27;96583.69;;;4.51;100.00
72038;BME280;59900;50.788;12.904;2024-03-23T11:46:53;96587.47;;;4.48;100.00
72038;BME280;59900;50.788;12.904;2024-03-23T11:49:22;96566.31;;;4.51;100.00
72038;BME280;59900;50.788;12.904;2024-03-23T11:51:48;96573.66;;;4.48;100.00
72038;BME280;59900;50.788;12.904;2024-03-23T11:54:13;96571.06;;;4.48;100.00
72038;BME280;59900;50.788;12.904;2024-03-23T11:56:38;96579.69;;;4.48;100.00
72038;BME280;59900;50.788;12.904;2024-03-23T11:59:04;96573.13;;;4.38;100.00
72038;BME280;59900;50.788;12.904;2024-03-23T12:01:29;96586.31;;;4.36;100.00
72038;BME280;59900;50.788;12.904;2024-03-23T12:03:54;96584.78;;;4.42;100.00
72038;BME280;59900;50.788;12.904;2024-03-23T12:06:20;96578.16;;;4.39;100.00
72038;BME280;59900;50.788;12.904;2024-03-23T12:08:45;96586.47;;;4.49;100.00
72038;BME280;59900;50.788;12.904;2024-03-23T12:11:12;96589.34;;;4.55;100.00
72038;BME280;59900;50.788;12.904;2024-03-23T12:13:38;96594.47;;;4.48;100.00
72038;BME280;59900;50.788;12.904;2024-03-23T12:18:40;96590.88;;;4.49;100.00
72038;BME280;59900;50.788;12.904;2024-03-23T12:21:05;96596.25;;;4.47;100.00
72038;BME280;59900;50.788;12.904;2024-03-23T12:23:31;96608.56;;;4.39;100.00
72038;BME280;59900;50.788;12.904;2024-03-23T12:25:56;96598.06;;;4.32;99.66
72038;BME280;59900;50.788;12.904;2024-03-23T12:28:21;96602.28;;;4.33;100.00
72038;BME280;59900;50.788;12.904;2024-03-23T12:30:46;96600.66;;;4.32;100.00
72038;BME280;59900;50.788;12.904;2024-03-23T12:33:12;96599.06;;;4.31;100.00
72038;BME280;59900;50.788;12.904;2024-03-23T12:35:37;96606.78;;;4.39;100.00
72038;BME280;59900;50.788;12.904;2024-03-23T12:38:02;96621.00;;;4.43;100.00
72038;BME280;59900;50.788;12.904;2024-03-23T12:40:27;96623.44;;;4.45;100.00
72038;BME280;59900;50.788;12.904;2024-03-23T12:42:53;96621.66;;;4.45;100.00
72038;BME280;59900;50.788;12.904;2024-03-23T12:45:19;96653.22;;;4.42;100.00
72038;BME280;59900;50.788;12.904;2024-03-23T12:47:44;96630.53;;;4.51;100.00
72038;BME280;59900;50.788;12.904;2024-03-23T12:50:11;96641.09;;;4.64;100.00
72038;BME280;59900;50.788;12.904;2024-03-23T12:52:36;96646.94;;;4.66;99.24
72038;BME280;59900;50.788;12.904;2024-03-23T12:55:02;96620.91;;;4.81;98.38
72038;BME280;59900;50.788;12.904;2024-03-23T12:57:28;96609.91;;;5.00;95.68
72038;BME280;59900;50.788;12.904;2024-03-23T12:59:54;96618.00;;;5.26;93.01
72038;BME280;59900;50.788;12.904;2024-03-23T13:02:20;96591.06;;;5.61;93.78
72038;BME280;59900;50.788;12.904;2024-03-23T13:04:46;96578.97;;;6.03;91.37
72038;BME280;59900;50.788;12.904;2024-03-23T13:07:12;96582.66;;;6.49;88.50
72038;BME280;59900;50.788;12.904;2024-03-23T13:09:37;96608.28;;;6.73;85.40
72038;BME280;59900;50.788;12.904;2024-03-23T13:12:03;96585.84;;;6.86;82.14
72038;BME280;59900;50.788;12.904;2024-03-23T13:14:28;96586.25;;;6.96;82.11
72038;BME280;59900;50.788;12.904;2024-03-23T13:16:53;96590.47;;;6.90;80.60
72038;BME280;59900;50.788;12.904;2024-03-23T13:19:18;96601.25;;;6.74;80.94
72038;BME280;59900;50.788;12.904;2024-03-23T13:21:45;96598.59;;;6.67;81.69
72038;BME280;59900;50.788;12.904;2024-03-23T13:24:10;96606.06;;;6.70;81.93
72038;BME280;59900;50.788;12.904;2024-03-23T13:26:35;96590.47;;;6.84;79.39
72038;BME280;59900;50.788;12.904;2024-03-23T13:29:00;96596.06;;;6.81;78.49
72038;BME280;59900;50.788;12.904;2024-03-23T13:31:26;96586.66;;;6.86;78.42
72038;BME280;59900;50.788;12.904;2024-03-23T13:33:51;96591.13;;;7.05;79.98
72038;BME280;59900;50.788;12.904;2024-03-23T13:36:16;96583.50;;;7.17;78.13
72038;BME280;59900;50.788;12.904;2024-03-23T13:38:41;96591.22;;;7.58;76.61
72038;BME280;59900;50.788;12.904;2024-03-23T13:41:07;96577.53;;;8.02;72.90
72038;BME280;59900;50.788;12.904;2024-03-23T13:43:33;96586.16;;;8.35;69.06
72038;BME280;59900;50.788;12.904;2024-03-23T13:45:59;96559.72;;;8.63;67.99
72038;BME280;59900;50.788;12.904;2024-03-23T13:48:26;96579.47;;;9.10;67.58
72038;BME280;59900;50.788;12.904;2024-03-23T13:51:04;96571.41;;;9.05;64.26
72038;BME280;59900;50.788;12.904;2024-03-23T13:53:30;96563.38;;;8.99;64.03
72038;BME280;59900;50.788;12.904;2024-03-23T13:55:57;96552.84;;;9.06;65.06